createdAt,value
2022-12-25T00:01:13.672Z,100.00
2022-12-25T00:03:40.580Z,100.00
2022-12-25T00:06:07.696Z,100.00
2022-12-25T00:08:36.000Z,100.00
2022-12-25T00:11:12.548Z,100.00
2022-12-25T00:13:40.123Z,100.00
2022-12-25T00:16:09.125Z,100.00
2022-12-25T00:18:35.909Z,100.00
2022-12-25T00:21:05.920Z,100.00
2022-12-25T00:23:34.057Z,100.00
2022-12-25T00:26:05.739Z,100.00
2022-12-25T00:28:32.526Z,100.00
2022-12-25T00:30:59.326Z,100.00
2022-12-25T00:33:26.489Z,100.00
2022-12-25T00:36:00.809Z,100.00
2022-12-25T00:38:28.117Z,100.00
2022-12-25T00:40:55.176Z,100.00
2022-12-25T00:43:22.291Z,100.00
2022-12-25T00:45:57.692Z,100.00
2022-12-25T00:48:25.530Z,100.00
2022-12-25T00:51:00.893Z,100.00
2022-12-25T00:53:28.920Z,100.00
2022-12-25T00:56:01.936Z,100.00
2022-12-25T00:58:31.314Z,100.00
2022-12-25T01:00:59.150Z,100.00
2022-12-25T01:03:27.198Z,100.00
2022-12-25T01:06:02.581Z,100.00
2022-12-25T01:08:31.022Z,100.00
2022-12-25T01:11:00.457Z,100.00
2022-12-25T01:13:28.535Z,100.00
2022-12-25T01:15:55.354Z,100.00
2022-12-25T01:18:23.862Z,100.00
2022-12-25T01:20:51.214Z,100.00
2022-12-25T01:23:17.920Z,100.00
2022-12-25T01:25:44.920Z,100.00
2022-12-25T01:28:11.877Z,100.00
2022-12-25T01:30:39.745Z,100.00
2022-12-25T01:33:06.511Z,100.00
2022-12-25T01:35:33.389Z,100.00
2022-12-25T01:38:00.252Z,100.00
2022-12-25T01:40:27.049Z,100.00
2022-12-25T01:42:53.918Z,100.00
2022-12-25T01:45:36.774Z,100.00
2022-12-25T01:48:08.593Z,100.00
2022-12-25T01:50:38.339Z,100.00
2022-12-25T01:53:06.208Z,100.00
2022-12-25T01:55:34.865Z,100.00
2022-12-25T01:58:04.184Z,100.00
2022-12-25T02:00:31.002Z,100.00
2022-12-25T02:02:58.744Z,100.00
2022-12-25T02:05:32.159Z,100.00
2022-12-25T02:08:07.906Z,100.00
2022-12-25T02:10:34.640Z,100.00
2022-12-25T02:13:02.541Z,100.00
2022-12-25T02:15:40.659Z,100.00
2022-12-25T02:18:19.294Z,100.00
2022-12-25T02:21:18.137Z,100.00
2022-12-25T02:24:10.301Z,100.00
2022-12-25T02:26:52.377Z,100.00
2022-12-25T02:29:43.878Z,100.00
2022-12-25T02:32:19.108Z,100.00
2022-12-25T02:35:03.810Z,100.00
2022-12-25T02:38:06.059Z,100.00
2022-12-25T02:40:41.140Z,100.00
2022-12-25T02:43:38.464Z,100.00
2022-12-25T02:46:29.902Z,100.00
2022-12-25T02:49:20.027Z,100.00
2022-12-25T02:52:33.115Z,100.00
2022-12-25T02:55:31.097Z,100.00
2022-12-25T02:58:21.088Z,100.00
2022-12-25T03:01:12.767Z,100.00
2022-12-25T03:03:59.820Z,100.00
2022-12-25T03:06:43.794Z,100.00
2022-12-25T03:09:52.125Z,100.00
2022-12-25T03:12:39.982Z,100.00
2022-12-25T03:15:27.210Z,100.00
2022-12-25T03:17:56.094Z,100.00
2022-12-25T03:20:41.279Z,100.00
2022-12-25T03:23:28.357Z,100.00
2022-12-25T03:26:13.968Z,100.00
2022-12-25T03:28:40.762Z,100.00
2022-12-25T03:31:29.757Z,100.00
2022-12-25T03:34:57.645Z,100.00
2022-12-25T03:38:10.074Z,100.00
2022-12-25T03:41:14.824Z,100.00
2022-12-25T03:44:10.892Z,100.00
2022-12-25T03:47:13.505Z,100.00
2022-12-25T03:50:14.813Z,100.00
2022-12-25T03:53:00.759Z,100.00
2022-12-25T03:55:46.449Z,100.00
2022-12-25T03:58:39.720Z,100.00
2022-12-25T04:01:26.234Z,100.00
2022-12-25T04:04:11.691Z,100.00
2022-12-25T04:06:57.259Z,100.00
2022-12-25T04:09:43.205Z,100.00
2022-12-25T04:12:28.695Z,100.00
2022-12-25T04:15:14.080Z,100.00
2022-12-25T04:17:59.523Z,100.00
2022-12-25T04:20:45.089Z,100.00
2022-12-25T04:23:30.312Z,100.00
2022-12-25T04:26:18.412Z,100.00
2022-12-25T04:29:03.940Z,100.00
2022-12-25T04:31:49.525Z,100.00
2022-12-25T04:34:34.919Z,100.00
2022-12-25T04:37:01.775Z,100.00
2022-12-25T04:39:28.486Z,100.00
2022-12-25T04:41:55.282Z,100.00
2022-12-25T04:44:22.016Z,100.00
2022-12-25T04:46:48.820Z,100.00
2022-12-25T04:49:15.725Z,100.00
2022-12-25T04:51:42.669Z,100.00
2022-12-25T04:54:09.473Z,100.00
2022-12-25T04:56:41.710Z,100.00
2022-12-25T04:59:12.227Z,100.00
2022-12-25T05:01:41.348Z,100.00
2022-12-25T05:04:08.230Z,100.00
2022-12-25T05:06:35.336Z,100.00
2022-12-25T05:09:02.198Z,100.00
2022-12-25T05:11:29.691Z,100.00
2022-12-25T05:14:00.340Z,100.00
2022-12-25T05:16:27.558Z,100.00
2022-12-25T05:18:54.927Z,100.00
2022-12-25T05:21:22.456Z,100.00
2022-12-25T05:23:53.413Z,100.00
2022-12-25T05:26:23.369Z,100.00
2022-12-25T05:28:52.922Z,100.00
2022-12-25T05:31:23.135Z,100.00
2022-12-25T05:33:51.910Z,100.00
2022-12-25T05:36:19.980Z,100.00
2022-12-25T05:38:50.035Z,100.00
2022-12-25T05:41:17.165Z,100.00
2022-12-25T05:43:44.126Z,100.00
2022-12-25T05:46:13.430Z,100.00
2022-12-25T05:48:41.530Z,100.00
2022-12-25T05:51:16.648Z,100.00
2022-12-25T05:53:44.000Z,100.00
2022-12-25T05:56:12.202Z,100.00
2022-12-25T05:58:40.484Z,100.00
2022-12-25T06:01:31.611Z,100.00
2022-12-25T06:03:58.510Z,100.00
2022-12-25T06:06:25.624Z,100.00
2022-12-25T06:08:55.566Z,100.00
2022-12-25T06:11:22.413Z,100.00
2022-12-25T06:13:53.363Z,100.00
2022-12-25T06:16:23.742Z,100.00
2022-12-25T06:18:54.514Z,100.00
2022-12-25T06:21:24.866Z,100.00
2022-12-25T06:23:51.594Z,100.00
2022-12-25T06:26:20.209Z,100.00
2022-12-25T06:28:48.061Z,100.00
2022-12-25T06:31:21.816Z,100.00
2022-12-25T06:33:49.670Z,100.00
2022-12-25T06:36:27.383Z,100.00
2022-12-25T06:38:55.541Z,100.00
2022-12-25T06:41:38.897Z,100.00
2022-12-25T06:44:06.054Z,100.00
2022-12-25T06:46:33.123Z,100.00
2022-12-25T06:49:00.408Z,100.00
2022-12-25T06:51:32.268Z,100.00
2022-12-25T06:54:03.186Z,100.00
2022-12-25T06:56:30.433Z,100.00
2022-12-25T06:59:02.545Z,100.00
2022-12-25T07:01:36.477Z,100.00
2022-12-25T07:04:09.712Z,100.00
2022-12-25T07:06:36.429Z,100.00
2022-12-25T07:09:06.099Z,100.00
2022-12-25T07:11:32.955Z,100.00
2022-12-25T07:13:59.722Z,100.00
2022-12-25T07:16:26.499Z,100.00
2022-12-25T07:18:53.427Z,100.00
2022-12-25T07:21:21.097Z,100.00
2022-12-25T07:23:50.016Z,100.00
2022-12-25T07:26:17.677Z,100.00
2022-12-25T07:28:44.771Z,100.00
2022-12-25T07:31:14.417Z,100.00
2022-12-25T07:33:42.060Z,100.00
2022-12-25T07:36:10.247Z,100.00
2022-12-25T07:38:40.636Z,100.00
2022-12-25T07:41:13.285Z,100.00
2022-12-25T07:43:40.231Z,98.57
2022-12-25T07:46:07.123Z,99.29
2022-12-25T07:48:34.525Z,100.00
2022-12-25T07:51:03.834Z,98.26
2022-12-25T07:53:30.618Z,97.99
2022-12-25T07:56:05.891Z,100.00
2022-12-25T07:58:33.587Z,100.00
2022-12-25T08:01:12.753Z,100.00
2022-12-25T08:03:39.800Z,99.74
2022-12-25T08:06:08.983Z,98.41
2022-12-25T08:08:36.929Z,97.56
2022-12-25T08:11:03.667Z,94.46
2022-12-25T08:13:31.919Z,94.90
2022-12-25T08:16:03.292Z,98.60
2022-12-25T08:18:31.299Z,100.00
2022-12-25T08:21:08.728Z,100.00
2022-12-25T08:23:37.809Z,99.24
2022-12-25T08:26:05.980Z,100.00
2022-12-25T08:28:34.660Z,99.84
2022-12-25T08:31:24.891Z,100.00
2022-12-25T08:33:53.953Z,100.00
2022-12-25T08:36:22.044Z,100.00
2022-12-25T08:38:49.158Z,98.89
2022-12-25T08:41:16.713Z,95.03
2022-12-25T08:43:44.024Z,93.96
2022-12-25T08:46:11.425Z,94.79
2022-12-25T08:48:39.864Z,92.50
2022-12-25T08:51:11.287Z,92.90
2022-12-25T08:53:38.168Z,91.42
2022-12-25T08:56:05.340Z,93.03
2022-12-25T08:58:33.766Z,92.07
2022-12-25T09:01:00.732Z,90.78
2022-12-25T09:03:28.101Z,90.00
2022-12-25T09:05:55.022Z,90.87
2022-12-25T09:08:22.051Z,90.89
2022-12-25T09:10:49.735Z,91.85
2022-12-25T09:13:18.910Z,92.89
2022-12-25T09:15:46.260Z,90.56
2022-12-25T09:18:13.923Z,91.05
2022-12-25T09:20:40.951Z,93.16
2022-12-25T09:23:14.410Z,92.25
2022-12-25T09:25:44.413Z,90.95
2022-12-25T09:28:24.188Z,91.29
2022-12-25T09:30:52.068Z,89.37
2022-12-25T09:33:19.730Z,89.98
2022-12-25T09:36:04.890Z,88.24
2022-12-25T09:38:31.857Z,88.43
2022-12-25T09:41:32.144Z,87.91
2022-12-25T09:44:13.660Z,86.21
2022-12-25T09:46:57.593Z,85.00
2022-12-25T09:49:38.945Z,81.92
2022-12-25T09:52:13.239Z,79.35
2022-12-25T09:55:05.023Z,78.79
2022-12-25T09:57:33.023Z,75.00
2022-12-25T09:59:59.892Z,69.93
2022-12-25T10:03:04.364Z,67.35
2022-12-25T10:05:52.983Z,65.20
2022-12-25T10:08:26.002Z,62.96
2022-12-25T10:11:13.930Z,62.36
2022-12-25T10:14:23.586Z,60.79
2022-12-25T10:17:32.254Z,60.88
2022-12-25T10:20:26.470Z,60.36
2022-12-25T10:23:02.102Z,60.89
2022-12-25T10:25:29.295Z,60.43
2022-12-25T10:28:04.018Z,59.76
2022-12-25T10:30:31.626Z,60.45
2022-12-25T10:32:58.988Z,59.26
2022-12-25T10:35:29.050Z,58.80
2022-12-25T10:38:01.064Z,59.06
2022-12-25T10:40:36.509Z,58.66
2022-12-25T10:43:18.613Z,58.71
2022-12-25T10:45:47.800Z,57.49
2022-12-25T10:48:28.161Z,58.46
2022-12-25T10:50:56.335Z,58.11
2022-12-25T10:53:26.215Z,58.55
2022-12-25T10:56:04.766Z,57.97
2022-12-25T10:58:33.011Z,57.96
2022-12-25T11:01:03.309Z,57.48
2022-12-25T11:03:38.544Z,57.79
2022-12-25T11:06:07.485Z,57.32
2022-12-25T11:08:35.288Z,57.02
2022-12-25T11:11:08.427Z,57.80
2022-12-25T11:13:51.039Z,57.11
2022-12-25T11:16:31.940Z,57.26
2022-12-25T11:19:00.265Z,58.33
2022-12-25T11:21:30.559Z,56.96
2022-12-25T11:24:18.121Z,56.36
2022-12-25T11:26:50.351Z,56.40
2022-12-25T11:29:23.559Z,55.84
2022-12-25T11:31:51.915Z,56.07
2022-12-25T11:34:30.944Z,55.77
2022-12-25T11:36:59.951Z,55.24
2022-12-25T11:39:37.514Z,55.60
2022-12-25T11:42:27.132Z,56.01
2022-12-25T11:45:03.584Z,54.83
2022-12-25T11:47:46.614Z,54.40
2022-12-25T11:50:27.470Z,53.89
2022-12-25T11:52:55.986Z,53.23
2022-12-25T11:56:06.421Z,53.31
2022-12-25T11:58:41.061Z,53.59
2022-12-25T12:01:15.962Z,52.58
2022-12-25T12:03:44.395Z,52.75
2022-12-25T12:06:43.629Z,52.17
2022-12-25T12:09:34.864Z,51.53
2022-12-25T12:12:13.098Z,51.55
2022-12-25T12:15:15.050Z,51.46
2022-12-25T12:17:41.922Z,51.35
2022-12-25T12:20:33.258Z,51.32
2022-12-25T12:23:02.003Z,51.11
2022-12-25T12:25:29.507Z,51.33
2022-12-25T12:28:04.847Z,50.78
2022-12-25T12:30:36.341Z,50.96
2022-12-25T12:33:07.347Z,50.65
2022-12-25T12:35:37.327Z,51.02
2022-12-25T12:38:12.252Z,50.87
2022-12-25T12:40:43.012Z,51.07
2022-12-25T12:43:36.561Z,50.83
2022-12-25T12:46:08.280Z,51.46
2022-12-25T12:48:44.289Z,51.20
2022-12-25T12:51:15.085Z,51.16
2022-12-25T12:53:43.153Z,51.05
2022-12-25T12:56:13.157Z,51.34
2022-12-25T12:58:48.638Z,51.08
2022-12-25T13:01:27.324Z,51.34
2022-12-25T13:04:19.080Z,51.20
2022-12-25T13:07:11.189Z,51.23
2022-12-25T13:09:55.370Z,51.23
2022-12-25T13:12:23.024Z,51.31
2022-12-25T13:14:51.527Z,51.79
2022-12-25T13:17:24.897Z,51.70
2022-12-25T13:20:01.421Z,51.72
2022-12-25T13:22:53.040Z,51.71
2022-12-25T13:25:24.061Z,51.91
2022-12-25T13:27:57.740Z,52.31
2022-12-25T13:30:25.107Z,52.12
2022-12-25T13:32:53.497Z,51.03
2022-12-25T13:35:25.896Z,51.48
2022-12-25T13:37:53.774Z,51.10
2022-12-25T13:40:28.084Z,51.49
2022-12-25T13:42:59.735Z,51.00
2022-12-25T13:45:29.873Z,50.93
2022-12-25T13:47:57.583Z,51.38
2022-12-25T13:50:34.893Z,51.72
2022-12-25T13:53:12.893Z,52.48
2022-12-25T13:55:42.067Z,52.21
2022-12-25T13:58:18.856Z,52.24
2022-12-25T14:00:49.402Z,52.48
2022-12-25T14:03:23.901Z,52.12
2022-12-25T14:06:05.558Z,51.76
2022-12-25T14:08:35.190Z,52.41
2022-12-25T14:11:05.760Z,52.90
2022-12-25T14:13:37.837Z,53.32
2022-12-25T14:16:05.305Z,52.47
2022-12-25T14:18:32.861Z,52.63
2022-12-25T14:21:14.764Z,53.28
2022-12-25T14:23:45.352Z,53.47
2022-12-25T14:26:20.075Z,52.77
2022-12-25T14:29:17.580Z,54.07
2022-12-25T14:31:46.885Z,54.35
2022-12-25T14:34:23.066Z,54.34
2022-12-25T14:36:52.273Z,54.49
2022-12-25T14:39:39.392Z,54.56
2022-12-25T14:42:21.844Z,54.97
2022-12-25T14:45:07.401Z,55.70
2022-12-25T14:47:50.420Z,56.52
2022-12-25T14:50:27.645Z,56.45
2022-12-25T14:52:54.881Z,57.18
2022-12-25T14:55:24.298Z,57.51
2022-12-25T14:58:07.868Z,58.11
2022-12-25T15:00:38.202Z,58.46
2022-12-25T15:03:09.435Z,59.07
2022-12-25T15:05:40.842Z,60.33
2022-12-25T15:08:13.383Z,61.37
2022-12-25T15:13:31.747Z,62.22
2022-12-25T15:15:58.598Z,63.32
2022-12-25T15:18:30.430Z,63.84
2022-12-25T15:20:57.620Z,63.85
2022-12-25T15:23:25.703Z,64.53
2022-12-25T15:25:52.468Z,64.85
2022-12-25T15:28:20.331Z,65.42
2022-12-25T15:30:50.534Z,65.82
2022-12-25T15:33:18.695Z,66.78
2022-12-25T15:35:46.395Z,66.76
2022-12-25T15:38:13.498Z,67.41
2022-12-25T15:40:41.606Z,67.65
2022-12-25T15:43:31.204Z,69.92
2022-12-25T15:46:00.053Z,70.83
2022-12-25T15:48:26.988Z,70.85
2022-12-25T15:50:53.677Z,71.62
2022-12-25T15:53:20.550Z,72.64
2022-12-25T15:55:47.493Z,70.67
2022-12-25T15:58:15.300Z,71.56
2022-12-25T16:00:42.166Z,72.60
2022-12-25T16:03:09.376Z,72.93
2022-12-25T16:05:36.628Z,73.33
2022-12-25T16:08:03.588Z,73.74
2022-12-25T16:10:36.654Z,73.71
2022-12-25T16:13:05.435Z,74.00
2022-12-25T16:15:34.700Z,75.41
2022-12-25T16:18:03.108Z,75.86
2022-12-25T16:20:29.877Z,76.33
2022-12-25T16:23:01.044Z,77.55
2022-12-25T16:25:46.564Z,78.09
2022-12-25T16:28:13.673Z,77.91
2022-12-25T16:30:41.504Z,78.57
2022-12-25T16:33:10.076Z,78.77
2022-12-25T16:35:37.273Z,79.92
2022-12-25T16:38:04.164Z,78.65
2022-12-25T16:40:32.007Z,78.73
2022-12-25T16:42:59.049Z,78.07
2022-12-25T16:45:25.844Z,76.78
2022-12-25T16:47:52.507Z,75.88
2022-12-25T16:50:19.358Z,77.44
2022-12-25T16:52:46.367Z,80.63
2022-12-25T16:55:13.276Z,79.59
2022-12-25T16:57:40.064Z,77.37
2022-12-25T17:00:09.388Z,77.58
2022-12-25T17:02:36.349Z,77.43
2022-12-25T17:05:03.401Z,76.82
2022-12-25T17:07:30.139Z,76.60
2022-12-25T17:09:57.289Z,77.83
2022-12-25T17:12:23.975Z,79.15
2022-12-25T17:14:53.699Z,80.04
2022-12-25T17:17:20.441Z,80.63
2022-12-25T17:19:47.285Z,80.87
2022-12-25T17:22:14.124Z,80.40
2022-12-25T17:24:41.661Z,80.15
2022-12-25T17:27:09.553Z,80.72
2022-12-25T17:29:39.113Z,80.69
2022-12-25T17:32:07.825Z,80.93
2022-12-25T17:34:34.866Z,81.19
2022-12-25T17:37:01.568Z,80.72
2022-12-25T17:39:28.497Z,81.51
2022-12-25T17:41:55.537Z,81.69
2022-12-25T17:44:22.654Z,81.05
2022-12-25T17:46:50.869Z,81.98
2022-12-25T17:49:21.124Z,81.70
2022-12-25T17:51:48.866Z,81.15
2022-12-25T17:54:15.745Z,81.24
2022-12-25T17:56:42.583Z,81.32
2022-12-25T17:59:18.195Z,82.30
2022-12-25T18:01:46.635Z,82.61
2022-12-25T18:04:13.602Z,82.81
2022-12-25T18:06:40.659Z,82.57
2022-12-25T18:09:07.521Z,82.62
2022-12-25T18:11:37.487Z,82.91
2022-12-25T18:14:06.066Z,82.42
2022-12-25T18:16:35.952Z,82.40
2022-12-25T18:19:06.251Z,82.24
2022-12-25T18:21:33.403Z,82.48
2022-12-25T18:24:03.181Z,83.96
2022-12-25T18:26:30.168Z,83.70
2022-12-25T18:28:57.754Z,84.97
2022-12-25T18:31:27.386Z,84.96
2022-12-25T18:33:56.866Z,84.31
2022-12-25T18:36:26.214Z,84.58
2022-12-25T18:38:54.723Z,85.92
2022-12-25T18:41:22.663Z,85.75
2022-12-25T18:43:53.158Z,87.18
2022-12-25T18:46:27.109Z,87.49
2022-12-25T18:48:57.419Z,87.00
2022-12-25T18:51:27.664Z,87.35
2022-12-25T18:53:57.579Z,87.08
2022-12-25T18:56:24.503Z,86.65
2022-12-25T18:58:51.575Z,87.53
2022-12-25T19:01:21.973Z,88.17
2022-12-25T19:03:50.445Z,87.73
2022-12-25T19:06:23.687Z,88.68
2022-12-25T19:08:50.570Z,88.57
2022-12-25T19:11:18.801Z,87.20
2022-12-25T19:13:46.551Z,87.22
2022-12-25T19:16:14.182Z,87.54
2022-12-25T19:18:42.540Z,87.65
2022-12-25T19:21:10.677Z,87.80
2022-12-25T19:23:38.624Z,89.96
2022-12-25T19:26:07.495Z,90.11
2022-12-25T19:28:35.278Z,90.20
2022-12-25T19:31:02.910Z,91.01
2022-12-25T19:33:31.533Z,90.14
2022-12-25T19:36:07.433Z,89.72
2022-12-25T19:38:34.334Z,90.41
2022-12-25T19:41:09.238Z,89.92
2022-12-25T19:43:38.212Z,92.03
2022-12-25T19:46:06.076Z,92.45
2022-12-25T19:48:39.999Z,91.23
2022-12-25T19:51:18.137Z,92.02
2022-12-25T19:53:45.681Z,93.34
2022-12-25T19:56:12.901Z,93.97
2022-12-25T19:58:44.145Z,94.82
2022-12-25T20:01:33.692Z,96.55
2022-12-25T20:04:20.334Z,96.43
2022-12-25T20:06:47.085Z,97.21
2022-12-25T20:09:21.192Z,96.78
2022-12-25T20:11:48.570Z,96.47
2022-12-25T20:17:18.873Z,96.73
2022-12-25T20:19:52.961Z,97.03
2022-12-25T20:22:20.233Z,96.70
2022-12-25T20:24:49.479Z,95.98
2022-12-25T20:27:16.332Z,96.47
2022-12-25T20:29:43.662Z,97.44
2022-12-25T20:32:11.307Z,96.50
2022-12-25T20:34:39.239Z,97.44
2022-12-25T20:37:12.848Z,96.95
2022-12-25T20:39:41.391Z,96.75
2022-12-25T20:42:09.399Z,96.19
2022-12-25T20:45:03.813Z,95.92
2022-12-25T20:47:30.627Z,97.43
2022-12-25T20:49:57.842Z,98.31
2022-12-25T20:52:24.699Z,99.22
2022-12-25T20:54:54.591Z,98.50
2022-12-25T20:57:21.289Z,99.49
2022-12-25T20:59:47.984Z,98.75
2022-12-25T21:02:33.472Z,100.00
2022-12-25T21:05:03.806Z,100.00
2022-12-25T21:07:30.898Z,100.00
2022-12-25T21:09:57.810Z,100.00
2022-12-25T21:12:24.528Z,100.00
2022-12-25T21:14:51.995Z,100.00
2022-12-25T21:17:18.858Z,100.00
2022-12-25T21:19:45.527Z,100.00
2022-12-25T21:22:12.925Z,100.00
2022-12-25T21:24:47.671Z,100.00
2022-12-25T21:27:14.414Z,100.00
2022-12-25T21:29:41.266Z,100.00
2022-12-25T21:32:27.077Z,100.00
2022-12-25T21:34:53.887Z,100.00
2022-12-25T21:37:20.602Z,100.00
2022-12-25T21:39:50.484Z,100.00
2022-12-25T21:42:17.385Z,100.00
2022-12-25T21:44:44.205Z,100.00
2022-12-25T21:47:11.225Z,100.00
2022-12-25T21:49:56.385Z,100.00
2022-12-25T21:52:24.012Z,100.00
2022-12-25T21:54:55.434Z,100.00
2022-12-25T21:57:22.278Z,100.00
2022-12-25T21:59:49.379Z,100.00
2022-12-25T22:02:16.753Z,100.00
2022-12-25T22:04:43.700Z,100.00
2022-12-25T22:07:20.116Z,100.00
2022-12-25T22:09:48.736Z,100.00
2022-12-25T22:12:36.098Z,100.00
2022-12-25T22:15:09.642Z,100.00
2022-12-25T22:17:58.130Z,100.00
2022-12-25T22:20:30.816Z,100.00
2022-12-25T22:22:58.380Z,100.00
2022-12-25T22:25:25.460Z,100.00
2022-12-25T22:27:52.690Z,100.00
2022-12-25T22:30:23.136Z,100.00
2022-12-25T22:32:50.827Z,100.00
2022-12-25T22:35:18.703Z,100.00
2022-12-25T22:37:48.292Z,100.00
2022-12-25T22:40:29.041Z,100.00
2022-12-25T22:42:57.765Z,100.00
2022-12-25T22:45:24.853Z,100.00
2022-12-25T22:47:52.020Z,100.00
2022-12-25T22:50:19.131Z,100.00
2022-12-25T22:52:47.195Z,100.00
2022-12-25T22:55:17.085Z,100.00
2022-12-25T22:57:43.901Z,100.00
2022-12-25T23:00:13.836Z,100.00
2022-12-25T23:02:40.642Z,100.00
2022-12-25T23:05:07.840Z,100.00
2022-12-25T23:07:34.632Z,100.00
2022-12-25T23:10:01.526Z,100.00
2022-12-25T23:12:46.812Z,100.00
2022-12-25T23:15:13.812Z,100.00
2022-12-25T23:17:59.000Z,100.00
2022-12-25T23:20:44.528Z,100.00
2022-12-25T23:23:36.527Z,100.00
2022-12-25T23:26:10.048Z,100.00
2022-12-25T23:28:59.392Z,100.00
2022-12-25T23:31:39.502Z,100.00
2022-12-25T23:34:10.557Z,100.00
2022-12-25T23:36:37.418Z,100.00
2022-12-25T23:39:09.597Z,100.00
2022-12-25T23:41:39.481Z,100.00
2022-12-25T23:44:06.704Z,100.00
2022-12-25T23:46:33.603Z,100.00
2022-12-25T23:49:00.508Z,100.00
2022-12-25T23:51:27.361Z,100.00
2022-12-25T23:53:54.131Z,100.00
2022-12-25T23:56:21.293Z,100.00
2022-12-25T23:58:52.039Z,100.00
